KIAB

McConnell Air Force Base

Airport
ICAO code
KIAB
Summary
ICAO Region
NAM
ICAO Territory
Location

Wichita, Kansas,

Elevation
1371 ft
Coordinates
37° 38' 1" N , 97° 15' 35" W
KCC
Airport CFIT
Altimeter Temperature Error Correction
Airport LOS
Parallel Runway Operation
Metar
Observation
KIAB 070755Z AUTO 04012KT 10SM CLR 14/07 A3029 RMK AO2 SLP251 T01420068
Station
McConnell Air Force Base
Date/Time
2022-10-07 07:55:00
Wind direction
40°
Wind speed
12 kts
Lowest cloud amount
n/a
Temperature
14.2°C
Dew point
6.8°C
Humidity
61%
Weather condition
n/a

Description

McConnell Air Force Base is a United States Air Force installation located 6 km southeast of the central business district of Wichita, a city in Sedgwick County, Kansas.

Climatology

Humid “subtropical” climate (Köppen climate classification Cfa) - characterized by hot, humid summers and cool winters. Significant amounts of precipitation occur in all seasons with most falling during the summer. Winter snowfall is associated with large storms that the westerlies steer from west to east. Most summer rainfall occurs during thunderstorms.

Airport map

Aerial View

SKYbrary Partners:

Safety knowledge contributed by: